King George, Virginia
Current Conditions -  °F | °C
As of 5:15 AM on Tuesday 27 Jan 2015 (Local Time) from KEZF Reporting Station
Overcast Overcast  
Wind Chill: 24°   Ceiling: 6000
Heat Index: 31°   Visibility: 10mi
Dew Point: 25°   Wind: 7mph
Humidity: 79%   Direction: 350°N
Pressure: 29.75"   Gusts: NA
Location:  38.27°N, 77.18°W
Report Text: KEZF 271015Z AUTO 35006KT 10SM SCT035 BKN060 OVC080 00/M04 A2975 RMK AO2 T10051038
Loading
Personal Weather Stations






























Interactive Weather Map New forecast layout! Learn more

10-Day Weather Forecast

Advertisements
Track Severe Weather on mobile